< < Back
Terminal Aerodrome Forecast


Current Version              Previous Versions:   1  2  3  4  5  6  7  8  9  

Terminal Aerodrome Forecast

473
FTUS42 KFFC 311100
TAFATL
TAF
KATL 311130Z 3112/0118 31008KT P6SM SCT150
     FM311400 32008KT P6SM SCT120
     FM311900 31012G20KT P6SM BKN080
     FM010100 33018G28KT P6SM BKN025 PROB30 0101/0106 6SM -SHRA
     FM011000 33020G30KT P6SM BKN035
     FM011600 32020G30KT P6SM SCT050=

Latest METAR

461
SAUS70 KWBC 311600
MTRATL
METAR KATL 311552Z 32007KT 10SM FEW100 SCT150 15/05 A2994 RMK AO2 SLP137
VIRGA DSNT NW T01500050


USA.gov is the U.S. government's official web portal to all federal, state and local government web resources and services.